createdAt,value
2022-11-13T00:02:24.043Z,7.93
2022-11-13T00:07:25.933Z,8.95
2022-11-13T00:12:29.318Z,11.38
2022-11-13T00:17:31.384Z,22.88
2022-11-13T00:22:33.050Z,11.60
2022-11-13T00:27:34.812Z,9.15
2022-11-13T00:32:37.894Z,11.88
2022-11-13T00:37:39.666Z,10.05
2022-11-13T00:42:41.303Z,9.10
2022-11-13T00:47:43.130Z,17.48
2022-11-13T00:52:45.335Z,10.23
2022-11-13T00:57:47.017Z,11.30
2022-11-13T01:02:48.702Z,10.48
2022-11-13T01:07:50.781Z,8.65
2022-11-13T01:12:52.846Z,11.52
2022-11-13T01:17:55.127Z,14.82
2022-11-13T01:22:57.222Z,15.10
2022-11-13T01:27:59.370Z,10.70
2022-11-13T01:33:01.484Z,12.00
2022-11-13T01:38:03.165Z,10.07
2022-11-13T01:43:23.168Z,10.13
2022-11-13T01:48:32.340Z,11.43
2022-11-13T01:53:34.497Z,19.73
2022-11-13T01:58:37.418Z,16.55
2022-11-13T02:03:39.485Z,13.48
2022-11-13T02:08:41.716Z,11.05
2022-11-13T02:13:43.681Z,13.75
2022-11-13T02:18:46.156Z,10.90
2022-11-13T02:23:57.321Z,13.38
2022-11-13T02:28:59.420Z,16.27
2022-11-13T02:34:04.195Z,13.95
2022-11-13T02:39:09.373Z,12.88
2022-11-13T02:44:11.692Z,11.07
2022-11-13T02:49:13.418Z,27.25
2022-11-13T02:54:17.102Z,12.57
2022-11-13T02:59:19.420Z,10.82
2022-11-13T03:04:21.594Z,19.83
2022-11-13T03:09:23.666Z,13.50
2022-11-13T03:14:25.830Z,15.15
2022-11-13T03:19:28.256Z,15.35
2022-11-13T03:24:29.947Z,12.10
2022-11-13T03:29:32.055Z,15.32
2022-11-13T03:34:34.140Z,10.80
2022-11-13T03:39:36.337Z,18.83
2022-11-13T03:44:37.973Z,10.60
2022-11-13T03:49:40.090Z,11.48
2022-11-13T03:54:42.271Z,9.82
2022-11-13T03:59:44.034Z,8.60
2022-11-13T04:04:46.184Z,6.18
2022-11-13T04:09:48.317Z,9.57
2022-11-13T04:14:50.493Z,8.30
2022-11-13T04:19:52.138Z,5.80
2022-11-13T04:24:53.840Z,7.15
2022-11-13T04:29:55.549Z,8.95
2022-11-13T04:34:57.611Z,7.70
2022-11-13T04:39:59.729Z,7.72
2022-11-13T04:45:01.793Z,6.65
2022-11-13T04:50:04.541Z,8.90
2022-11-13T04:55:06.900Z,8.35
2022-11-13T05:00:09.373Z,6.38
2022-11-13T05:05:11.077Z,11.85
2022-11-13T05:10:12.879Z,6.63
2022-11-13T05:15:15.057Z,9.25
2022-11-13T05:20:17.337Z,6.75
2022-11-13T05:25:19.435Z,7.22
2022-11-13T05:30:21.208Z,13.90
2022-11-13T05:35:23.263Z,9.10
2022-11-13T05:40:25.298Z,9.32
2022-11-13T05:45:27.095Z,8.50
2022-11-13T05:50:28.867Z,8.20
2022-11-13T05:55:30.936Z,8.43
2022-11-13T06:00:32.666Z,6.28
2022-11-13T06:05:37.348Z,6.47
2022-11-13T06:10:39.442Z,6.90
2022-11-13T06:15:41.555Z,10.00
2022-11-13T06:20:43.225Z,6.88
2022-11-13T06:25:44.992Z,20.85
2022-11-13T06:30:46.674Z,19.20
2022-11-13T06:35:48.379Z,11.07
2022-11-13T06:40:50.013Z,11.65
2022-11-13T06:45:51.764Z,12.73
2022-11-13T06:50:53.922Z,11.73
2022-11-13T06:55:56.011Z,12.40
2022-11-13T07:00:57.925Z,9.77
2022-11-13T07:06:03.381Z,11.63
2022-11-13T07:11:05.261Z,54.10
2022-11-13T07:16:16.402Z,30.50
2022-11-13T07:21:19.766Z,19.60
2022-11-13T07:26:21.879Z,17.40
2022-11-13T07:31:23.574Z,19.52
2022-11-13T07:36:25.303Z,18.05
2022-11-13T07:41:27.409Z,25.33
2022-11-13T07:46:29.496Z,23.63
2022-11-13T07:51:31.579Z,17.90
2022-11-13T07:56:33.325Z,9.50
2022-11-13T08:01:35.526Z,6.90
2022-11-13T08:06:37.890Z,9.38
2022-11-13T08:11:39.589Z,49.75
2022-11-13T08:16:41.640Z,42.13
2022-11-13T08:21:43.328Z,48.85
2022-11-13T08:26:44.974Z,33.08
2022-11-13T08:31:46.709Z,21.83
2022-11-13T08:36:48.645Z,14.25
2022-11-13T08:41:50.749Z,15.68
2022-11-13T08:46:52.422Z,12.93
2022-11-13T08:51:54.113Z,12.18
2022-11-13T08:56:58.665Z,10.27
2022-11-13T09:02:02.584Z,10.25
2022-11-13T09:07:04.298Z,8.23
2022-11-13T09:12:06.328Z,16.40
2022-11-13T09:17:08.413Z,8.48
2022-11-13T09:22:10.922Z,8.95
2022-11-13T09:27:12.595Z,9.65
2022-11-13T09:32:16.009Z,8.57
2022-11-13T09:37:18.809Z,5.97
2022-11-13T09:42:24.986Z,5.43
2022-11-13T09:47:33.468Z,5.75
2022-11-13T09:52:37.997Z,3.28
2022-11-13T09:58:18.205Z,5.43
2022-11-13T10:03:39.044Z,3.92
2022-11-13T10:08:57.128Z,3.15
2022-11-13T10:14:03.236Z,6.35
2022-11-13T10:19:29.876Z,5.35
2022-11-13T10:24:44.971Z,7.72
2022-11-13T10:29:49.156Z,4.93
2022-11-13T10:34:58.187Z,3.00
2022-11-13T10:40:00.309Z,3.10
2022-11-13T10:45:01.993Z,4.68
2022-11-13T10:50:11.974Z,2.88
2022-11-13T10:55:16.785Z,3.27
2022-11-13T11:00:32.839Z,3.03
2022-11-13T11:05:34.981Z,2.65
2022-11-13T11:10:57.347Z,1.85
2022-11-13T11:16:02.581Z,2.10
2022-11-13T11:21:12.230Z,2.28
2022-11-13T11:26:35.182Z,1.88
2022-11-13T11:31:44.631Z,2.38
2022-11-13T11:37:14.190Z,2.50
2022-11-13T11:42:28.181Z,2.33
2022-11-13T11:47:30.004Z,1.88
2022-11-13T11:52:53.491Z,0.90
2022-11-13T11:58:04.702Z,1.58
2022-11-13T12:03:49.395Z,1.50
2022-11-13T12:09:12.364Z,2.30
2022-11-13T12:14:23.302Z,1.25
2022-11-13T12:19:49.577Z,2.10
2022-11-13T12:25:14.834Z,1.95
2022-11-13T12:30:21.103Z,2.00
2022-11-13T12:35:25.191Z,2.10
2022-11-13T12:40:29.478Z,4.40
2022-11-13T12:45:37.310Z,1.75
2022-11-13T12:50:39.036Z,1.52
2022-11-13T12:55:41.372Z,2.35
2022-11-13T13:00:58.878Z,1.90
2022-11-13T13:06:23.558Z,1.95
2022-11-13T13:11:38.717Z,2.67
2022-11-13T13:16:40.438Z,2.63
2022-11-13T13:21:44.378Z,1.40
2022-11-13T13:26:47.333Z,1.90
2022-11-13T13:32:20.407Z,1.58
2022-11-13T13:37:54.032Z,3.30
2022-11-13T13:43:16.932Z,1.23
2022-11-13T13:48:23.493Z,1.08
2022-11-13T13:53:30.266Z,1.90
2022-11-13T13:58:35.710Z,1.20
2022-11-13T14:03:37.484Z,3.05
2022-11-13T14:08:39.138Z,1.58
2022-11-13T14:13:41.901Z,1.30
2022-11-13T14:18:43.601Z,5.25
2022-11-13T14:23:51.085Z,2.22
2022-11-13T14:29:01.094Z,2.40
2022-11-13T14:34:14.191Z,1.73
2022-11-13T14:39:29.225Z,1.88
2022-11-13T14:44:35.644Z,1.50
2022-11-13T14:49:38.256Z,1.77
2022-11-13T14:55:13.045Z,1.92
2022-11-13T15:00:17.444Z,5.45
2022-11-13T15:05:19.132Z,9.00
2022-11-13T15:10:23.365Z,8.80
2022-11-13T15:15:28.630Z,22.80
2022-11-13T15:20:31.557Z,9.52
2022-11-13T15:25:33.483Z,12.48
2022-11-13T15:30:35.642Z,13.48
2022-11-13T15:35:37.877Z,4.75
2022-11-13T15:40:40.725Z,6.28
2022-11-13T15:45:44.411Z,8.25
2022-11-13T15:50:46.823Z,9.52
2022-11-13T15:55:49.258Z,11.40
2022-11-13T16:00:51.923Z,13.65
2022-11-13T16:05:54.360Z,26.45
2022-11-13T16:10:56.080Z,18.10
2022-11-13T16:15:59.676Z,13.75
2022-11-13T16:21:01.349Z,17.83
2022-11-13T16:26:04.579Z,19.63
2022-11-13T16:31:06.391Z,20.85
2022-11-13T16:36:23.640Z,14.05
2022-11-13T16:41:26.240Z,23.20
2022-11-13T16:46:32.651Z,19.35
2022-11-13T16:51:34.766Z,23.95
2022-11-13T16:56:36.987Z,15.82
2022-11-13T17:01:38.817Z,62.00
2022-11-13T17:06:40.646Z,31.48
2022-11-13T17:11:42.921Z,12.80
2022-11-13T17:16:45.275Z,31.98
2022-11-13T17:21:46.922Z,27.00
2022-11-13T17:26:48.650Z,19.67
2022-11-13T17:31:50.914Z,22.58
2022-11-13T17:36:54.728Z,17.08
2022-11-13T17:41:56.945Z,12.70
2022-11-13T17:46:58.644Z,21.27
2022-11-13T17:52:00.361Z,34.38
2022-11-13T17:57:02.261Z,7.82
2022-11-13T18:02:04.119Z,39.38
2022-11-13T18:07:05.945Z,30.80
2022-11-13T18:12:07.962Z,43.03
2022-11-13T18:17:11.269Z,36.05
2022-11-13T18:22:12.982Z,26.90
2022-11-13T18:27:15.444Z,40.72
2022-11-13T18:32:17.298Z,35.15
2022-11-13T18:37:19.588Z,40.17
2022-11-13T18:42:21.695Z,29.90
2022-11-13T18:47:23.385Z,26.00
2022-11-13T18:52:25.068Z,15.82
2022-11-13T18:57:26.766Z,14.82
2022-11-13T19:02:29.105Z,8.73
2022-11-13T19:07:31.205Z,12.18
2022-11-13T19:12:33.354Z,11.80
2022-11-13T19:17:35.523Z,10.00
2022-11-13T19:22:40.065Z,14.23
2022-11-13T19:27:42.350Z,11.73
2022-11-13T19:32:44.545Z,50.22
2022-11-13T19:37:46.725Z,33.97
2022-11-13T19:42:48.806Z,20.95
2022-11-13T19:47:50.440Z,30.65
2022-11-13T19:52:52.649Z,28.08
2022-11-13T19:57:54.394Z,65.78
2022-11-13T20:02:56.789Z,27.83
2022-11-13T20:07:58.736Z,63.33
2022-11-13T20:13:00.882Z,18.90
2022-11-13T20:18:02.907Z,31.02
2022-11-13T20:23:04.638Z,41.25
2022-11-13T20:28:06.316Z,21.90
2022-11-13T20:33:08.412Z,23.08
2022-11-13T20:38:10.424Z,18.20
2022-11-13T20:43:12.513Z,30.25
2022-11-13T20:48:14.271Z,23.13
2022-11-13T20:53:16.405Z,20.40
2022-11-13T20:58:18.232Z,19.63
2022-11-13T21:03:20.816Z,32.22
2022-11-13T21:08:23.482Z,26.90
2022-11-13T21:13:25.587Z,30.95
2022-11-13T21:18:28.124Z,25.48
2022-11-13T21:23:30.675Z,22.00
2022-11-13T21:28:33.985Z,17.90
2022-11-13T21:33:37.704Z,20.30
2022-11-13T21:38:40.316Z,24.98
2022-11-13T21:43:42.031Z,12.63
2022-11-13T21:48:44.513Z,22.35
2022-11-13T21:53:46.960Z,36.08
2022-11-13T21:58:49.126Z,17.75
2022-11-13T22:03:51.482Z,45.08
2022-11-13T22:08:56.050Z,34.20
2022-11-13T22:13:58.456Z,45.03
2022-11-13T22:19:07.430Z,30.50
2022-11-13T22:24:09.884Z,17.38
2022-11-13T22:29:12.223Z,38.40
2022-11-13T22:34:14.284Z,30.17
2022-11-13T22:39:16.386Z,23.65
2022-11-13T22:44:18.468Z,18.70
2022-11-13T22:49:20.775Z,19.02
2022-11-13T22:54:23.010Z,20.60
2022-11-13T22:59:25.156Z,12.63
2022-11-13T23:04:27.205Z,16.20
2022-11-13T23:09:29.087Z,13.30
2022-11-13T23:14:31.328Z,12.77
2022-11-13T23:19:33.474Z,15.07
2022-11-13T23:24:35.628Z,11.90
2022-11-13T23:29:37.876Z,8.65
2022-11-13T23:34:58.830Z,10.05
2022-11-13T23:40:01.094Z,8.70
2022-11-13T23:45:03.345Z,21.20
2022-11-13T23:50:05.717Z,18.55
2022-11-13T23:55:07.869Z,34.88
